Reklama

Seznam meteostanic a jejich METAR

Vyhledat místa podle abecedy:
A B C D E F G H I J K L M N O P Q R S T U V W X Y Z

Filtrovat:

ID stanice:
a/nebo
Název místa (fulltext):
 
Místo (ID)Naposledy načteno 
Aalborg (EKYT) 18.11.2018 04:50 UTC Zobrazit METAR
EKYT 180450Z 34003KT 7000 FEW012 BKN016 05/04 Q1038
Aarhus (EKAH) 17.11.2018 09:50 UTC Zobrazit METAR
EKAH 170950Z 15006KT 110V210 9999 SCT014 06/04 Q1041
Abu Dhabi (OMAA) 19.11.2018 00:00 UTC Zobrazit METAR
OMAA 190000Z 29007KT 9999 FEW035 24/17 Q1014 NOSIG
Abuja (DNAA) 19.11.2018 00:00 UTC Zobrazit METAR
DNAA 190000Z 08005KT CAVOK 23/19 Q1013 NOSIG
Accra (DGAA) 19.11.2018 00:00 UTC Zobrazit METAR
DGAA 190000Z 28005KT CAVOK 27/24 Q1011 NOSIG
Addis Abeba (HAAB) 19.11.2018 00:00 UTC Zobrazit METAR
HAAB 190000Z 18002KT 9999 FEW025 11/05 Q1027
Agana (PGUM) 18.11.2018 23:54 UTC Zobrazit METAR
PGUM 182354Z 07013KT 10SM CLR 31/26 A2991 RMK AO2 SLP119 T03060256 10306 20261 50010
Ahe Island (NTHE) Zatím nenačteno  
Akureyri (BIAR) 19.11.2018 00:00 UTC Zobrazit METAR
BIAR 190000Z 15003KT 110V220 9999 OVC052 08/05 Q1020
Almaty (UAAA) Zatím nenačteno  
Amman (OJAM) 19.11.2018 00:00 UTC Zobrazit METAR
OJAM 190000Z 10003KT 5000 HZ NSC 14/06 Q1019 NOSIG
Amsterdam (EHAM) 18.11.2018 23:55 UTC Zobrazit METAR
EHAM 182355Z 06014KT 9999 FEW017 05/03 Q1027 NOSIG
Antananarivo (FMMI) 19.11.2018 00:00 UTC Zobrazit METAR
FMMI 190000Z 10005KT 9999 FEW017 SCT020 BKN040 17/17 Q1019 NOSIG
Antwerp (EBAW) 18.11.2018 23:50 UTC Zobrazit METAR
EBAW 182350Z AUTO 05009KT CAVOK 02/M03 Q1024
Apia (NSFA) 18.11.2018 21:00 UTC Zobrazit METAR
NSFA 182100Z 02008KT 9999 FEW020 SCT070 31/25 Q1010 NOSIG
Aruba I (TNCA) 19.11.2018 00:00 UTC Zobrazit METAR
TNCA 190000Z 09015KT 9999 FEW019 28/24 Q1011 NOSIG
Ascension I. (FHAW) 14.11.2018 07:50 UTC Zobrazit METAR
FHAW 140750Z 12007KT 6000 FEW005 BKN012 OVC035 22/20 Q1014 GRN TEMPO 9999 SCT018 WHT
Ashgabat (UTAA) 18.11.2018 20:00 UTC Zobrazit METAR
UTAA 182000Z 30002KT 9000 SCT050 BKN100 OVC200 09/04 Q1020 R88/CLRD70 NOSIG
Asmara (HHAS) 03.02.2015 17:00 UTC Zobrazit METAR
HHAS 031700Z 27004KT CAVOK 15/06 Q1028 NOSIG
Astana (UACC) Zatím nenačteno  
Astrakhan (URWA) Zatím nenačteno  
Asuncion (SGAS) 19.11.2018 00:00 UTC Zobrazit METAR
SGAS 190000Z 19009KT 9999 FEW033 BKN070 22/19 Q1015
Athens (LGAV) 18.11.2018 23:50 UTC Zobrazit METAR
LGAV 182350Z 21005KT 9999 SCT025 BKN070 15/12 Q1009 NOSIG
Reklama

Počasí na Váš email

Emaily jsou bez reklamy a bez spamu



Odhlásit newsletter

Reklama


Lunární kalendář

  • 23.11.
  • 30.11.
  • 07.12.
  • 15.12.



Reklama


Reklama
Povinné ručení
Reklama



Reklama